Ana Sayfa
METAR-TAF:

METAR-TAF

Havaalanları :

Aziz Katherina, Mısır

Enlem: 28-41-07N, Boylam: 034-03-45E, yükseklik: 1331 m

METAR: eksik

Saat: 10:47 (08:47 UTC)

Tahmin

Rapor saat 05:00 UTC de 3 saat ve 47 dakika önce yapıldı.
Ayın 25'si saat 06 UTC'den ayın 26'si saat 12 UTC'ye kadar geçerli Tahmin
Rüzgar kuzeydan 10 kt
Görüş mesafesi 10 km veya daha fazla
1500 m altında bulut yok ve kümülonimbus yok

TAF: HESC 250500Z 2506/2612 01010KT CAVOK

4.000'den fazla havaalanı için hava durumu gözlemleri ve tahminleri (METAR ve TAF raporları).

Kullanılabilir istasyonlar harita üzerinde sarı ve kırmızı noktalarla gösterilir.

İstasyonun adını görmek için fareyi noktanın üzerinde gezdirin.

Sonrasında hava gözlem ve tahminlerini görmek için tıklayın.

Haritayı değiştirmek için: yaklaştırmak için siyah artı işaretli yeşil düğmeye ve uzaklaştırmak için de eksi işaretli düğmeye hızla tıklayın; bitişik haritalar için yeşil okları kullanın.


METAR-TAF: